sensor_id;sensor_type;location;lat;lon;timestamp;pressure;altitude;pressure_sealevel;temperature;humidity
53480;BME280;56133;51.012;-1.648;2022-09-03T00:00:54;99901.41;;;14.95;100.00
53480;BME280;56133;51.012;-1.648;2022-09-03T00:03:30;99909.22;;;14.90;100.00
53480;BME280;56133;51.012;-1.648;2022-09-03T00:06:22;99908.91;;;14.85;100.00
53480;BME280;56133;51.012;-1.648;2022-09-03T00:12:01;99901.22;;;14.57;100.00
53480;BME280;56133;51.012;-1.648;2022-09-03T00:17:12;99901.38;;;14.72;100.00
53480;BME280;56133;51.012;-1.648;2022-09-03T00:19:46;99902.19;;;14.72;100.00
53480;BME280;56133;51.012;-1.648;2022-09-03T00:22:33;99903.91;;;14.65;100.00
53480;BME280;56133;51.012;-1.648;2022-09-03T00:25:02;99901.19;;;14.65;100.00
53480;BME280;56133;51.012;-1.648;2022-09-03T00:27:32;99904.56;;;14.67;100.00
53480;BME280;56133;51.012;-1.648;2022-09-03T00:30:10;99898.84;;;14.54;100.00
53480;BME280;56133;51.012;-1.648;2022-09-03T00:32:55;99894.13;;;14.56;100.00
53480;BME280;56133;51.012;-1.648;2022-09-03T00:36:11;99890.94;;;14.52;100.00
53480;BME280;56133;51.012;-1.648;2022-09-03T00:38:15;99881.66;;;14.47;100.00
53480;BME280;56133;51.012;-1.648;2022-09-03T00:45:59;99873.69;;;14.53;100.00
53480;BME280;56133;51.012;-1.648;2022-09-03T00:48:35;99870.50;;;14.50;100.00
53480;BME280;56133;51.012;-1.648;2022-09-03T00:53:42;99872.75;;;14.38;100.00
53480;BME280;56133;51.012;-1.648;2022-09-03T01:04:54;99873.84;;;14.04;100.00
53480;BME280;56133;51.012;-1.648;2022-09-03T01:07:43;99874.19;;;14.01;100.00
53480;BME280;56133;51.012;-1.648;2022-09-03T01:13:10;99866.44;;;14.06;100.00
53480;BME280;56133;51.012;-1.648;2022-09-03T01:18:38;99867.13;;;13.91;100.00
53480;BME280;56133;51.012;-1.648;2022-09-03T01:27:05;99866.28;;;13.91;100.00
53480;BME280;56133;51.012;-1.648;2022-09-03T01:30:04;99871.81;;;13.98;100.00
53480;BME280;56133;51.012;-1.648;2022-09-03T01:46:50;99865.81;;;13.54;100.00
53480;BME280;56133;51.012;-1.648;2022-09-03T01:49:24;99859.56;;;13.45;100.00
53480;BME280;56133;51.012;-1.648;2022-09-03T01:52:02;99864.28;;;13.60;100.00
53480;BME280;56133;51.012;-1.648;2022-09-03T01:58:04;99852.31;;;13.71;100.00
53480;BME280;56133;51.012;-1.648;2022-09-03T02:00:34;99866.31;;;13.58;100.00
53480;BME280;56133;51.012;-1.648;2022-09-03T02:03:06;99864.44;;;13.58;100.00
53480;BME280;56133;51.012;-1.648;2022-09-03T02:05:32;99867.81;;;13.52;100.00
53480;BME280;56133;51.012;-1.648;2022-09-03T02:08:03;99861.91;;;13.57;100.00
53480;BME280;56133;51.012;-1.648;2022-09-03T02:10:51;99858.53;;;13.55;100.00
53480;BME280;56133;51.012;-1.648;2022-09-03T02:13:22;99861.91;;;13.57;100.00
53480;BME280;56133;51.012;-1.648;2022-09-03T02:15:51;99867.13;;;13.58;100.00
53480;BME280;56133;51.012;-1.648;2022-09-03T02:18:21;99857.03;;;13.69;100.00
53480;BME280;56133;51.012;-1.648;2022-09-03T02:20:48;99857.84;;;13.69;100.00
53480;BME280;56133;51.012;-1.648;2022-09-03T02:23:15;99855.66;;;13.64;100.00
53480;BME280;56133;51.012;-1.648;2022-09-03T02:25:46;99845.72;;;13.65;100.00
53480;BME280;56133;51.012;-1.648;2022-09-03T02:28:13;99851.47;;;13.62;100.00
53480;BME280;56133;51.012;-1.648;2022-09-03T02:30:39;99861.41;;;13.53;100.00
53480;BME280;56133;51.012;-1.648;2022-09-03T02:33:05;99858.22;;;13.58;100.00
53480;BME280;56133;51.012;-1.648;2022-09-03T02:35:31;99854.81;;;13.39;100.00
53480;BME280;56133;51.012;-1.648;2022-09-03T02:37:56;99860.38;;;13.21;100.00
53480;BME280;56133;51.012;-1.648;2022-09-03T02:40:32;99858.34;;;13.23;100.00
53480;BME280;56133;51.012;-1.648;2022-09-03T02:42:59;99859.22;;;13.40;100.00
53480;BME280;56133;51.012;-1.648;2022-09-03T02:45:27;99864.78;;;13.47;100.00
53480;BME280;56133;51.012;-1.648;2022-09-03T02:47:55;99862.41;;;13.60;100.00
53480;BME280;56133;51.012;-1.648;2022-09-03T02:50:22;99862.09;;;13.72;100.00
53480;BME280;56133;51.012;-1.648;2022-09-03T02:52:49;99870.00;;;13.73;100.00
53480;BME280;56133;51.012;-1.648;2022-09-03T02:55:14;99859.06;;;13.75;100.00
53480;BME280;56133;51.012;-1.648;2022-09-03T02:57:40;99858.66;;;13.94;100.00
53480;BME280;56133;51.012;-1.648;2022-09-03T03:00:06;99856.63;;;13.96;100.00
53480;BME280;56133;51.012;-1.648;2022-09-03T03:02:33;99856.50;;;13.81;100.00
53480;BME280;56133;51.012;-1.648;2022-09-03T03:04:58;99858.53;;;13.79;100.00
53480;BME280;56133;51.012;-1.648;2022-09-03T03:07:24;99865.63;;;13.64;100.00
53480;BME280;56133;51.012;-1.648;2022-09-03T03:09:50;99862.94;;;13.56;100.00
53480;BME280;56133;51.012;-1.648;2022-09-03T03:12:16;99858.88;;;13.60;100.00
53480;BME280;56133;51.012;-1.648;2022-09-03T03:14:42;99855.66;;;13.81;100.00
53480;BME280;56133;51.012;-1.648;2022-09-03T03:17:08;99862.06;;;13.88;100.00
53480;BME280;56133;51.012;-1.648;2022-09-03T03:19:33;99865.78;;;13.62;100.00
53480;BME280;56133;51.012;-1.648;2022-09-03T03:21:59;99861.25;;;13.63;100.00
53480;BME280;56133;51.012;-1.648;2022-09-03T03:24:24;99857.00;;;13.77;100.00
53480;BME280;56133;51.012;-1.648;2022-09-03T03:26:49;99851.97;;;13.65;100.00
53480;BME280;56133;51.012;-1.648;2022-09-03T03:29:16;99846.59;;;13.57;100.00
53480;BME280;56133;51.012;-1.648;2022-09-03T03:31:42;99851.97;;;13.57;100.00
53480;BME280;56133;51.012;-1.648;2022-09-03T03:34:07;99840.81;;;13.60;100.00
53480;BME280;56133;51.012;-1.648;2022-09-03T03:36:34;99833.56;;;13.69;100.00
53480;BME280;56133;51.012;-1.648;2022-09-03T03:39:00;99842.19;;;13.73;100.00
53480;BME280;56133;51.012;-1.648;2022-09-03T03:41:31;99834.34;;;13.94;100.00
53480;BME280;56133;51.012;-1.648;2022-09-03T03:43:59;99833.16;;;14.05;100.00
53480;BME280;56133;51.012;-1.648;2022-09-03T03:46:29;99833.69;;;14.01;100.00
53480;BME280;56133;51.012;-1.648;2022-09-03T03:48:55;99833.88;;;13.99;100.00
53480;BME280;56133;51.012;-1.648;2022-09-03T03:51:21;99826.78;;;13.98;100.00
53480;BME280;56133;51.012;-1.648;2022-09-03T03:53:46;99832.13;;;14.15;100.00
53480;BME280;56133;51.012;-1.648;2022-09-03T03:56:13;99835.31;;;14.18;100.00
53480;BME280;56133;51.012;-1.648;2022-09-03T03:58:41;99830.41;;;14.22;100.00
53480;BME280;56133;51.012;-1.648;2022-09-03T04:01:13;99830.41;;;14.22;100.00
53480;BME280;56133;51.012;-1.648;2022-09-03T04:03:39;99833.97;;;14.14;100.00
53480;BME280;56133;51.012;-1.648;2022-09-03T04:06:05;99830.59;;;14.12;100.00
53480;BME280;56133;51.012;-1.648;2022-09-03T04:08:34;99828.91;;;14.11;100.00
53480;BME280;56133;51.012;-1.648;2022-09-03T04:11:02;99831.63;;;14.11;100.00
53480;BME280;56133;51.012;-1.648;2022-09-03T04:13:29;99819.03;;;14.35;100.00
53480;BME280;56133;51.012;-1.648;2022-09-03T04:16:07;99816.16;;;14.36;100.00
53480;BME280;56133;51.012;-1.648;2022-09-03T04:18:34;99829.47;;;14.46;100.00
53480;BME280;56133;51.012;-1.648;2022-09-03T04:21:01;99827.28;;;14.50;100.00
53480;BME280;56133;51.012;-1.648;2022-09-03T04:23:35;99825.06;;;14.45;100.00
53480;BME280;56133;51.012;-1.648;2022-09-03T04:26:02;99826.28;;;14.42;100.00
53480;BME280;56133;51.012;-1.648;2022-09-03T04:28:28;99832.03;;;14.39;100.00
53480;BME280;56133;51.012;-1.648;2022-09-03T04:30:54;99821.88;;;14.41;100.00
53480;BME280;56133;51.012;-1.648;2022-09-03T04:33:19;99824.09;;;14.38;100.00
53480;BME280;56133;51.012;-1.648;2022-09-03T04:35:45;99827.63;;;14.47;100.00
53480;BME280;56133;51.012;-1.648;2022-09-03T04:38:10;99819.53;;;14.38;100.00
53480;BME280;56133;51.012;-1.648;2022-09-03T04:40:36;99815.00;;;14.31;100.00
53480;BME280;56133;51.012;-1.648;2022-09-03T04:43:02;99812.44;;;14.37;100.00
53480;BME280;56133;51.012;-1.648;2022-09-03T04:45:28;99810.41;;;14.39;100.00
53480;BME280;56133;51.012;-1.648;2022-09-03T04:48:01;99799.59;;;14.39;100.00
53480;BME280;56133;51.012;-1.648;2022-09-03T04:50:28;99809.59;;;14.31;100.00
53480;BME280;56133;51.012;-1.648;2022-09-03T04:52:54;99805.34;;;14.36;100.00
53480;BME280;56133;51.012;-1.648;2022-09-03T04:55:21;99802.97;;;14.41;100.00
53480;BME280;56133;51.012;-1.648;2022-09-03T04:57:47;99804.72;;;14.34;100.00
53480;BME280;56133;51.012;-1.648;2022-09-03T05:00:12;99808.59;;;14.32;100.00
53480;BME280;56133;51.012;-1.648;2022-09-03T05:02:38;99803.03;;;14.33;100.00
53480;BME280;56133;51.012;-1.648;2022-09-03T05:05:04;99813.75;;;14.50;100.00
53480;BME280;56133;51.012;-1.648;2022-09-03T05:07:30;99812.41;;;14.46;100.00
53480;BME280;56133;51.012;-1.648;2022-09-03T05:10:08;99805.19;;;14.38;100.00
53480;BME280;56133;51.012;-1.648;2022-09-03T05:12:34;99809.06;;;14.35;100.00
53480;BME280;56133;51.012;-1.648;2022-09-03T05:15:00;99804.44;;;14.52;100.00
53480;BME280;56133;51.012;-1.648;2022-09-03T05:17:26;99806.81;;;14.55;100.00
53480;BME280;56133;51.012;-1.648;2022-09-03T05:19:51;99802.75;;;14.51;100.00
53480;BME280;56133;51.012;-1.648;2022-09-03T05:22:18;99803.28;;;14.47;100.00
53480;BME280;56133;51.012;-1.648;2022-09-03T05:24:48;99807.84;;;14.46;100.00
53480;BME280;56133;51.012;-1.648;2022-09-03T05:27:15;99806.88;;;14.39;100.00
53480;BME280;56133;51.012;-1.648;2022-09-03T05:29:43;99810.41;;;14.39;100.00
53480;BME280;56133;51.012;-1.648;2022-09-03T05:32:10;99812.75;;;14.42;100.00
53480;BME280;56133;51.012;-1.648;2022-09-03T05:34:37;99819.56;;;14.30;100.00
53480;BME280;56133;51.012;-1.648;2022-09-03T05:37:02;99820.38;;;14.39;100.00
53480;BME280;56133;51.012;-1.648;2022-09-03T05:39:28;99819.75;;;14.29;100.00
53480;BME280;56133;51.012;-1.648;2022-09-03T05:41:53;99821.88;;;14.41;100.00
53480;BME280;56133;51.012;-1.648;2022-09-03T05:44:18;99822.22;;;14.47;100.00
53480;BME280;56133;51.012;-1.648;2022-09-03T05:46:48;99826.75;;;14.46;100.00
53480;BME280;56133;51.012;-1.648;2022-09-03T05:49:16;99825.94;;;14.46;100.00
53480;BME280;56133;51.012;-1.648;2022-09-03T05:51:41;99828.72;;;14.21;100.00
53480;BME280;56133;51.012;-1.648;2022-09-03T05:54:08;99823.28;;;14.29;100.00
53480;BME280;56133;51.012;-1.648;2022-09-03T05:56:36;99819.38;;;14.40;100.00
53480;BME280;56133;51.012;-1.648;2022-09-03T05:59:04;99824.84;;;14.55;100.00
53480;BME280;56133;51.012;-1.648;2022-09-03T06:01:36;99829.13;;;14.49;100.00
53480;BME280;56133;51.012;-1.648;2022-09-03T06:04:10;99829.72;;;14.28;100.00
53480;BME280;56133;51.012;-1.648;2022-09-03T06:06:38;99831.66;;;14.03;100.00
53480;BME280;56133;51.012;-1.648;2022-09-03T06:09:06;99834.78;;;14.31;100.00
53480;BME280;56133;51.012;-1.648;2022-09-03T06:11:34;99831.19;;;14.39;100.00
53480;BME280;56133;51.012;-1.648;2022-09-03T06:14:02;99836.53;;;14.55;100.00
53480;BME280;56133;51.012;-1.648;2022-09-03T06:16:34;99831.06;;;14.64;100.00
53480;BME280;56133;51.012;-1.648;2022-09-03T06:19:00;99830.00;;;14.81;100.00
53480;BME280;56133;51.012;-1.648;2022-09-03T06:21:26;99827.38;;;14.96;100.00
53480;BME280;56133;51.012;-1.648;2022-09-03T06:23:54;99832.94;;;14.95;100.00
53480;BME280;56133;51.012;-1.648;2022-09-03T06:26:23;99835.03;;;14.84;100.00
53480;BME280;56133;51.012;-1.648;2022-09-03T06:28:49;99838.06;;;14.90;100.00
53480;BME280;56133;51.012;-1.648;2022-09-03T06:31:19;99828.72;;;15.00;100.00
53480;BME280;56133;51.012;-1.648;2022-09-03T06:33:45;99837.09;;;15.06;100.00
53480;BME280;56133;51.012;-1.648;2022-09-03T06:36:21;99839.44;;;15.09;100.00
53480;BME280;56133;51.012;-1.648;2022-09-03T06:38:51;99848.56;;;14.84;100.00
53480;BME280;56133;51.012;-1.648;2022-09-03T06:41:19;99849.91;;;14.89;100.00
53480;BME280;56133;51.012;-1.648;2022-09-03T06:43:46;99846.00;;;15.14;100.00
53480;BME280;56133;51.012;-1.648;2022-09-03T06:46:14;99834.03;;;15.09;100.00
53480;BME280;56133;51.012;-1.648;2022-09-03T06:48:41;99836.16;;;15.22;100.00
53480;BME280;56133;51.012;-1.648;2022-09-03T06:53:38;99846.84;;;15.38;100.00
53480;BME280;56133;51.012;-1.648;2022-09-03T06:56:06;99846.91;;;15.30;100.00
53480;BME280;56133;51.012;-1.648;2022-09-03T06:58:37;99854.13;;;15.61;100.00
53480;BME280;56133;51.012;-1.648;2022-09-03T07:01:08;99854.44;;;15.81;100.00
53480;BME280;56133;51.012;-1.648;2022-09-03T07:03:34;99843.97;;;15.78;100.00
53480;BME280;56133;51.012;-1.648;2022-09-03T07:06:18;99856.91;;;15.91;100.00
53480;BME280;56133;51.012;-1.648;2022-09-03T07:08:45;99855.34;;;15.97;100.00
53480;BME280;56133;51.012;-1.648;2022-09-03T07:11:15;99858.97;;;15.89;100.00
53480;BME280;56133;51.012;-1.648;2022-09-03T07:13:44;99857.47;;;16.01;100.00
53480;BME280;56133;51.012;-1.648;2022-09-03T07:16:11;99855.69;;;15.93;100.00
53480;BME280;56133;51.012;-1.648;2022-09-03T07:18:37;99854.50;;;16.11;100.00
53480;BME280;56133;51.012;-1.648;2022-09-03T07:21:09;99858.72;;;16.29;100.00
53480;BME280;56133;51.012;-1.648;2022-09-03T07:23:36;99861.41;;;16.29;100.00
53480;BME280;56133;51.012;-1.648;2022-09-03T07:26:05;99868.69;;;16.13;100.00
53480;BME280;56133;51.012;-1.648;2022-09-03T07:28:34;99875.88;;;15.91;100.00
53480;BME280;56133;51.012;-1.648;2022-09-03T07:31:03;99876.72;;;15.68;100.00
53480;BME280;56133;51.012;-1.648;2022-09-03T07:33:29;99873.41;;;15.81;100.00
53480;BME280;56133;51.012;-1.648;2022-09-03T07:36:00;99863.19;;;16.06;100.00
53480;BME280;56133;51.012;-1.648;2022-09-03T07:38:25;99865.06;;;16.21;100.00
53480;BME280;56133;51.012;-1.648;2022-09-03T07:40:56;99872.72;;;16.32;100.00
53480;BME280;56133;51.012;-1.648;2022-09-03T07:43:25;99873.47;;;16.26;100.00
53480;BME280;56133;51.012;-1.648;2022-09-03T07:45:50;99868.41;;;16.08;100.00
53480;BME280;56133;51.012;-1.648;2022-09-03T07:48:16;99870.00;;;16.02;100.00
53480;BME280;56133;51.012;-1.648;2022-09-03T07:50:42;99881.09;;;15.92;100.00
53480;BME280;56133;51.012;-1.648;2022-09-03T07:53:07;99885.53;;;16.23;100.00
53480;BME280;56133;51.012;-1.648;2022-09-03T07:55:33;99875.97;;;16.73;100.00
53480;BME280;56133;51.012;-1.648;2022-09-03T07:57:58;99873.47;;;16.71;100.00
53480;BME280;56133;51.012;-1.648;2022-09-03T08:00:24;99874.44;;;16.85;100.00
53480;BME280;56133;51.012;-1.648;2022-09-03T08:02:52;99868.84;;;17.23;100.00
53480;BME280;56133;51.012;-1.648;2022-09-03T08:05:18;99858.06;;;17.52;100.00
53480;BME280;56133;51.012;-1.648;2022-09-03T08:07:45;99862.31;;;17.89;100.00
53480;BME280;56133;51.012;-1.648;2022-09-03T08:10:11;99861.72;;;17.94;100.00
53480;BME280;56133;51.012;-1.648;2022-09-03T08:12:37;99867.06;;;17.81;100.00
53480;BME280;56133;51.012;-1.648;2022-09-03T08:15:03;99862.00;;;17.99;100.00
53480;BME280;56133;51.012;-1.648;2022-09-03T08:17:29;99865.16;;;18.03;100.00
53480;BME280;56133;51.012;-1.648;2022-09-03T08:19:54;99873.06;;;18.26;100.00
53480;BME280;56133;51.012;-1.648;2022-09-03T08:22:21;99871.25;;;18.40;100.00
53480;BME280;56133;51.012;-1.648;2022-09-03T08:24:50;99877.94;;;18.38;100.00
53480;BME280;56133;51.012;-1.648;2022-09-03T08:27:15;99882.09;;;18.75;100.00
53480;BME280;56133;51.012;-1.648;2022-09-03T08:29:40;99874.53;;;18.71;100.00
53480;BME280;56133;51.012;-1.648;2022-09-03T08:32:06;99871.69;;;18.92;100.00
53480;BME280;56133;51.012;-1.648;2022-09-03T08:34:31;99871.78;;;19.06;100.00
53480;BME280;56133;51.012;-1.648;2022-09-03T08:36:57;99870.75;;;19.20;100.00
53480;BME280;56133;51.012;-1.648;2022-09-03T08:39:25;99874.13;;;19.29;100.00
53480;BME280;56133;51.012;-1.648;2022-09-03T08:44:51;99886.06;;;19.48;100.00
53480;BME280;56133;51.012;-1.648;2022-09-03T08:55:29;99889.44;;;18.81;100.00
53480;BME280;56133;51.012;-1.648;2022-09-03T08:58:08;99888.72;;;19.01;100.00
53480;BME280;56133;51.012;-1.648;2022-09-03T09:06:20;99891.75;;;19.60;100.00
53480;BME280;56133;51.012;-1.648;2022-09-03T09:14:27;99885.00;;;20.43;100.00
53480;BME280;56133;51.012;-1.648;2022-09-03T09:19:38;99885.84;;;20.37;100.00
53480;BME280;56133;51.012;-1.648;2022-09-03T09:22:13;99891.91;;;20.46;100.00
53480;BME280;56133;51.012;-1.648;2022-09-03T09:24:44;99887.34;;;20.40;100.00
53480;BME280;56133;51.012;-1.648;2022-09-03T09:27:13;99894.25;;;20.42;100.00
53480;BME280;56133;51.012;-1.648;2022-09-03T09:29:45;99897.84;;;20.29;100.00
53480;BME280;56133;51.012;-1.648;2022-09-03T09:32:13;99900.16;;;20.19;100.00
53480;BME280;56133;51.012;-1.648;2022-09-03T09:34:41;99904.34;;;20.22;100.00
53480;BME280;56133;51.012;-1.648;2022-09-03T09:37:09;99903.50;;;20.28;100.00
53480;BME280;56133;51.012;-1.648;2022-09-03T09:39:36;99905.41;;;20.21;100.00
53480;BME280;56133;51.012;-1.648;2022-09-03T09:44:36;99904.97;;;19.70;100.00
53480;BME280;56133;51.012;-1.648;2022-09-03T09:47:04;99916.50;;;19.79;100.00
53480;BME280;56133;51.012;-1.648;2022-09-03T09:49:34;99915.72;;;19.92;100.00
53480;BME280;56133;51.012;-1.648;2022-09-03T09:52:08;99915.88;;;20.30;100.00
53480;BME280;56133;51.012;-1.648;2022-09-03T09:54:35;99919.03;;;20.41;100.00
53480;BME280;56133;51.012;-1.648;2022-09-03T09:57:06;99912.22;;;20.63;100.00
53480;BME280;56133;51.012;-1.648;2022-09-03T09:59:33;99913.47;;;20.81;100.00
53480;BME280;56133;51.012;-1.648;2022-09-03T10:04:34;99892.78;;;22.02;95.85
53480;BME280;56133;51.012;-1.648;2022-09-03T10:09:59;99893.53;;;22.09;91.69
53480;BME280;56133;51.012;-1.648;2022-09-03T10:12:30;99894.16;;;22.11;87.87
53480;BME280;56133;51.012;-1.648;2022-09-03T10:15:31;99888.22;;;22.14;86.18
53480;BME280;56133;51.012;-1.648;2022-09-03T10:21:03;99896.94;;;21.79;86.53
53480;BME280;56133;51.012;-1.648;2022-09-03T10:26:10;99892.63;;;21.32;88.77
53480;BME280;56133;51.012;-1.648;2022-09-03T10:28:40;99891.63;;;21.59;88.19
53480;BME280;56133;51.012;-1.648;2022-09-03T10:33:46;99896.00;;;21.34;90.45
53480;BME280;56133;51.012;-1.648;2022-09-03T10:36:33;99906.22;;;21.46;89.50
53480;BME280;56133;51.012;-1.648;2022-09-03T10:42:06;99901.00;;;21.37;89.52
53480;BME280;56133;51.012;-1.648;2022-09-03T10:44:52;99905.66;;;21.30;91.67
53480;BME280;56133;51.012;-1.648;2022-09-03T10:50:26;99897.75;;;22.05;86.82
53480;BME280;56133;51.012;-1.648;2022-09-03T10:58:44;99903.53;;;22.40;86.80
53480;BME280;56133;51.012;-1.648;2022-09-03T11:03:59;99892.66;;;22.89;75.71
53480;BME280;56133;51.012;-1.648;2022-09-03T11:06:29;99894.44;;;22.65;82.43
53480;BME280;56133;51.012;-1.648;2022-09-03T11:09:17;99898.88;;;22.41;80.81
53480;BME280;56133;51.012;-1.648;2022-09-03T11:11:50;99896.59;;;22.45;80.80
53480;BME280;56133;51.012;-1.648;2022-09-03T11:14:27;99890.50;;;22.42;80.73
53480;BME280;56133;51.012;-1.648;2022-09-03T11:17:00;99895.91;;;22.68;76.82
53480;BME280;56133;51.012;-1.648;2022-09-03T11:19:40;99894.41;;;23.21;72.07
53480;BME280;56133;51.012;-1.648;2022-09-03T11:22:10;99903.75;;;23.13;73.78
53480;BME280;56133;51.012;-1.648;2022-09-03T11:24:38;99900.00;;;23.69;72.35
53480;BME280;56133;51.012;-1.648;2022-09-03T11:32:23;99903.94;;;22.81;71.16
53480;BME280;56133;51.012;-1.648;2022-09-03T11:34:53;99902.78;;;23.08;71.68
53480;BME280;56133;51.012;-1.648;2022-09-03T11:37:25;99908.78;;;23.47;71.14
53480;BME280;56133;51.012;-1.648;2022-09-03T11:42:28;99902.72;;;22.96;72.84
53480;BME280;56133;51.012;-1.648;2022-09-03T11:44:59;99905.81;;;22.99;70.13
53480;BME280;56133;51.012;-1.648;2022-09-03T11:47:43;99908.22;;;23.57;68.19
53480;BME280;56133;51.012;-1.648;2022-09-03T11:50:19;99906.06;;;22.79;71.88
53480;BME280;56133;51.012;-1.648;2022-09-03T11:52:50;99910.16;;;22.33;75.33
53480;BME280;56133;51.012;-1.648;2022-09-03T11:55:32;99912.72;;;22.27;74.56
53480;BME280;56133;51.012;-1.648;2022-09-03T11:58:09;99907.25;;;22.27;76.36
53480;BME280;56133;51.012;-1.648;2022-09-03T12:00:42;99909.38;;;22.25;77.93
53480;BME280;56133;51.012;-1.648;2022-09-03T12:03:13;99903.53;;;22.40;75.48
53480;BME280;56133;51.012;-1.648;2022-09-03T12:06:12;99905.63;;;22.45;77.65
53480;BME280;56133;51.012;-1.648;2022-09-03T12:08:52;99909.44;;;22.63;75.30
53480;BME280;56133;51.012;-1.648;2022-09-03T12:14:23;99916.41;;;22.96;73.17
53480;BME280;56133;51.012;-1.648;2022-09-03T12:19:35;99922.28;;;23.60;71.96
53480;BME280;56133;51.012;-1.648;2022-09-03T12:22:02;99923.13;;;23.61;68.67
53480;BME280;56133;51.012;-1.648;2022-09-03T12:24:28;99916.13;;;23.34;69.25
53480;BME280;56133;51.012;-1.648;2022-09-03T12:27:00;99924.09;;;22.87;70.94
53480;BME280;56133;51.012;-1.648;2022-09-03T12:29:28;99930.44;;;22.69;72.40
53480;BME280;56133;51.012;-1.648;2022-09-03T12:31:55;99928.69;;;23.24;73.98
53480;BME280;56133;51.012;-1.648;2022-09-03T12:34:22;99928.66;;;23.85;71.47
53480;BME280;56133;51.012;-1.648;2022-09-03T12:36:50;99918.50;;;23.73;70.98
53480;BME280;56133;51.012;-1.648;2022-09-03T12:39:21;99929.38;;;23.38;67.63
53480;BME280;56133;51.012;-1.648;2022-09-03T12:42:09;99928.81;;;23.47;69.97
53480;BME280;56133;51.012;-1.648;2022-09-03T12:44:37;99938.19;;;23.40;67.21
53480;BME280;56133;51.012;-1.648;2022-09-03T12:47:05;99939.00;;;23.28;68.02
53480;BME280;56133;51.012;-1.648;2022-09-03T12:49:39;99935.66;;;22.89;68.32
53480;BME280;56133;51.012;-1.648;2022-09-03T12:54:56;99937.09;;;22.92;68.49
53480;BME280;56133;51.012;-1.648;2022-09-03T12:57:27;99936.34;;;22.84;70.65
53480;BME280;56133;51.012;-1.648;2022-09-03T12:59:57;99941.50;;;23.11;74.20
53480;BME280;56133;51.012;-1.648;2022-09-03T13:05:43;99934.34;;;23.29;70.62
53480;BME280;56133;51.012;-1.648;2022-09-03T13:08:17;99928.69;;;23.24;68.66
53480;BME280;56133;51.012;-1.648;2022-09-03T13:10:44;99935.41;;;23.28;70.70
53480;BME280;56133;51.012;-1.648;2022-09-03T13:24:01;99945.91;;;22.56;73.09
53480;BME280;56133;51.012;-1.648;2022-09-03T13:31:52;99943.97;;;22.82;71.95
53480;BME280;56133;51.012;-1.648;2022-09-03T13:34:41;99941.75;;;22.54;73.24
53480;BME280;56133;51.012;-1.648;2022-09-03T13:37:12;99953.41;;;22.68;73.50
53480;BME280;56133;51.012;-1.648;2022-09-03T13:39:53;99950.56;;;22.56;74.62
53480;BME280;56133;51.012;-1.648;2022-09-03T13:42:25;99949.44;;;22.38;75.57
53480;BME280;56133;51.012;-1.648;2022-09-03T13:44:57;99955.53;;;22.40;77.32
53480;BME280;56133;51.012;-1.648;2022-09-03T13:47:33;99958.34;;;22.08;77.15
53480;BME280;56133;51.012;-1.648;2022-09-03T13:50:14;99953.09;;;22.07;78.17
53480;BME280;56133;51.012;-1.648;2022-09-03T13:55:48;99961.81;;;22.41;80.93
53480;BME280;56133;51.012;-1.648;2022-09-03T13:58:20;99958.53;;;22.32;79.78
53480;BME280;56133;51.012;-1.648;2022-09-03T14:03:34;99953.31;;;22.05;78.63
53480;BME280;56133;51.012;-1.648;2022-09-03T14:06:08;99961.06;;;21.83;79.39
53480;BME280;56133;51.012;-1.648;2022-09-03T14:25:28;99989.56;;;21.62;69.06
53480;BME280;56133;51.012;-1.648;2022-09-03T14:27:54;99987.94;;;21.47;67.01
53480;BME280;56133;51.012;-1.648;2022-09-03T14:30:48;99990.44;;;21.62;68.15
53480;BME280;56133;51.012;-1.648;2022-09-03T14:33:25;99992.25;;;21.30;68.69
53480;BME280;56133;51.012;-1.648;2022-09-03T14:39:01;99988.56;;;21.49;66.96
53480;BME280;56133;51.012;-1.648;2022-09-03T14:44:14;99990.06;;;21.45;72.02
53480;BME280;56133;51.012;-1.648;2022-09-03T14:52:47;100008.16;;;20.94;74.85
53480;BME280;56133;51.012;-1.648;2022-09-03T15:09:26;100023.06;;;20.91;77.60
53480;BME280;56133;51.012;-1.648;2022-09-03T15:12:07;100018.22;;;20.73;78.01
53480;BME280;56133;51.012;-1.648;2022-09-03T15:14:41;100014.47;;;20.68;78.60
53480;BME280;56133;51.012;-1.648;2022-09-03T15:36:56;100020.53;;;20.90;77.12
53480;BME280;56133;51.012;-1.648;2022-09-03T15:39:25;100023.06;;;20.65;77.97
53480;BME280;56133;51.012;-1.648;2022-09-03T15:41:57;100016.59;;;20.52;77.84
53480;BME280;56133;51.012;-1.648;2022-09-03T15:44:25;100021.63;;;20.28;74.51
53480;BME280;56133;51.012;-1.648;2022-09-03T15:47:06;100015.53;;;20.26;74.62
53480;BME280;56133;51.012;-1.648;2022-09-03T15:55:06;100033.16;;;20.10;74.89
53480;BME280;56133;51.012;-1.648;2022-09-03T15:57:53;100034.44;;;20.14;72.86
53480;BME280;56133;51.012;-1.648;2022-09-03T16:00:30;100039.03;;;20.00;71.90
53480;BME280;56133;51.012;-1.648;2022-09-03T16:03:08;100044.06;;;20.04;74.42
53480;BME280;56133;51.012;-1.648;2022-09-03T16:05:44;100043.63;;;19.93;72.37
53480;BME280;56133;51.012;-1.648;2022-09-03T16:08:22;100052.19;;;19.90;70.50
53480;BME280;56133;51.012;-1.648;2022-09-03T16:10:56;100042.72;;;19.79;71.28
53480;BME280;56133;51.012;-1.648;2022-09-03T16:19:20;100053.16;;;19.69;69.25
53480;BME280;56133;51.012;-1.648;2022-09-03T16:21:59;100053.19;;;19.82;71.34
53480;BME280;56133;51.012;-1.648;2022-09-03T16:27:15;100064.53;;;19.79;71.82
53480;BME280;56133;51.012;-1.648;2022-09-03T16:30:04;100056.59;;;19.91;70.07
53480;BME280;56133;51.012;-1.648;2022-09-03T16:32:56;100061.19;;;19.84;65.37
53480;BME280;56133;51.012;-1.648;2022-09-03T16:38:33;100053.81;;;19.71;67.83
53480;BME280;56133;51.012;-1.648;2022-09-03T16:43:43;100055.69;;;19.64;69.38
53480;BME280;56133;51.012;-1.648;2022-09-03T16:46:21;100054.41;;;19.60;68.08
53480;BME280;56133;51.012;-1.648;2022-09-03T17:07:45;100053.09;;;19.49;69.41
53480;BME280;56133;51.012;-1.648;2022-09-03T17:10:45;100046.56;;;19.36;73.24
53480;BME280;56133;51.012;-1.648;2022-09-03T17:18:50;100043.34;;;19.19;75.78